createdAt,value
2023-04-18T00:00:48.806Z,88586.00
2023-04-18T00:01:48.907Z,88586.00
2023-04-18T00:02:48.931Z,88586.00
2023-04-18T00:03:49.221Z,88584.00
2023-04-18T00:04:49.135Z,88582.00
2023-04-18T00:05:48.982Z,88584.00
2023-04-18T00:06:49.043Z,88582.00
2023-04-18T00:07:49.055Z,88580.00
2023-04-18T00:08:49.093Z,88582.00
2023-04-18T00:09:49.129Z,88580.00
2023-04-18T00:10:49.167Z,88580.00
2023-04-18T00:11:49.196Z,88580.00
2023-04-18T00:12:49.231Z,88578.00
2023-04-18T00:13:49.263Z,88580.00
2023-04-18T00:14:49.292Z,88580.00
2023-04-18T00:15:49.304Z,88582.00
2023-04-18T00:16:49.397Z,88582.00
2023-04-18T00:17:49.444Z,88578.00
2023-04-18T00:18:49.443Z,88576.00
2023-04-18T00:19:49.539Z,88578.00
2023-04-18T00:20:49.589Z,88574.00
2023-04-18T00:21:49.669Z,88576.00
2023-04-18T00:22:49.700Z,88574.00
2023-04-18T00:23:49.763Z,88578.00
2023-04-18T00:24:49.837Z,88576.00
2023-04-18T00:25:49.906Z,88570.00
2023-04-18T00:26:50.009Z,88570.00
2023-04-18T00:27:50.067Z,88570.00
2023-04-18T00:28:50.118Z,88568.00
2023-04-18T00:29:50.181Z,88570.00
2023-04-18T00:30:50.198Z,88570.00
2023-04-18T00:31:50.155Z,88568.00
2023-04-18T00:32:50.209Z,88570.00
2023-04-18T00:33:50.235Z,88570.00
2023-04-18T00:34:50.216Z,88566.00
2023-04-18T00:35:50.260Z,88568.00
2023-04-18T00:36:50.222Z,88572.00
2023-04-18T00:37:50.226Z,88570.00
2023-04-18T00:38:50.283Z,88570.00
2023-04-18T00:39:50.303Z,88566.00
2023-04-18T00:40:50.372Z,88568.00
2023-04-18T00:41:50.533Z,88570.00
2023-04-18T00:42:50.553Z,88568.00
2023-04-18T00:43:50.518Z,88568.00
2023-04-18T00:44:50.597Z,88568.00
2023-04-18T00:45:50.715Z,88572.00
2023-04-18T00:46:50.697Z,88570.00
2023-04-18T00:47:50.923Z,88570.00
2023-04-18T00:48:51.651Z,88568.00
2023-04-18T00:49:51.163Z,88570.00
2023-04-18T00:50:50.945Z,88568.00
2023-04-18T00:51:51.045Z,88568.00
2023-04-18T00:52:51.105Z,88568.00
2023-04-18T00:53:51.181Z,88570.00
2023-04-18T00:54:51.247Z,88570.00
2023-04-18T00:55:51.295Z,88574.00
2023-04-18T00:56:51.327Z,88572.00
2023-04-18T00:57:51.384Z,88574.00
2023-04-18T00:58:51.457Z,88570.00
2023-04-18T00:59:51.530Z,88570.00
2023-04-18T01:00:51.632Z,88572.00
2023-04-18T01:01:51.747Z,88570.00
2023-04-18T01:02:51.835Z,88568.00
2023-04-18T01:03:51.922Z,88570.00
2023-04-18T01:04:51.847Z,88574.00
2023-04-18T01:05:51.879Z,88572.00
2023-04-18T01:06:51.954Z,88572.00
2023-04-18T01:07:52.023Z,88574.00
2023-04-18T01:08:52.072Z,88576.00
2023-04-18T01:09:52.120Z,88578.00
2023-04-18T01:10:52.242Z,88578.00
2023-04-18T01:11:52.322Z,88576.00
2023-04-18T01:12:52.392Z,88578.00
2023-04-18T01:13:52.456Z,88576.00
2023-04-18T01:14:52.488Z,88576.00
2023-04-18T01:15:52.815Z,88572.00
2023-04-18T01:16:52.648Z,88574.00
2023-04-18T01:17:52.777Z,88570.00
2023-04-18T01:18:52.731Z,88568.00
2023-04-18T01:19:52.795Z,88568.00
2023-04-18T01:20:52.881Z,88568.00
2023-04-18T01:21:52.995Z,88568.00
2023-04-18T01:22:52.996Z,88566.00
2023-04-18T01:23:53.660Z,88566.00
2023-04-18T01:24:53.649Z,88566.00
2023-04-18T01:25:53.053Z,88566.00
2023-04-18T01:26:53.075Z,88562.00
2023-04-18T01:27:53.126Z,88560.00
2023-04-18T01:28:53.163Z,88560.00
2023-04-18T01:29:53.211Z,88556.00
2023-04-18T01:30:53.292Z,88558.00
2023-04-18T01:31:53.367Z,88558.00
2023-04-18T01:32:53.512Z,88554.00
2023-04-18T01:33:53.537Z,88554.00
2023-04-18T01:34:53.571Z,88554.00
2023-04-18T01:35:53.628Z,88552.00
2023-04-18T01:36:53.653Z,88548.00
2023-04-18T01:37:53.712Z,88548.00
2023-04-18T01:38:53.732Z,88548.00
2023-04-18T01:39:53.785Z,88550.00
2023-04-18T01:40:53.814Z,88548.00
2023-04-18T01:41:53.844Z,88548.00
2023-04-18T01:42:53.892Z,88552.00
2023-04-18T01:43:53.881Z,88552.00
2023-04-18T01:44:53.916Z,88550.00
2023-04-18T01:45:53.957Z,88550.00
2023-04-18T01:46:54.065Z,88550.00
2023-04-18T01:47:54.100Z,88550.00
2023-04-18T01:48:54.065Z,88548.00
2023-04-18T01:49:54.100Z,88548.00
2023-04-18T01:50:54.146Z,88548.00
2023-04-18T01:51:54.230Z,88554.00
2023-04-18T01:52:54.305Z,88550.00
2023-04-18T01:53:54.363Z,88552.00
2023-04-18T01:54:54.471Z,88548.00
2023-04-18T01:55:54.519Z,88548.00
2023-04-18T01:56:54.588Z,88550.00
2023-04-18T01:57:54.656Z,88550.00
2023-04-18T01:58:55.645Z,88550.00
2023-04-18T01:59:54.779Z,88546.00
2023-04-18T02:00:54.866Z,88550.00
2023-04-18T02:01:54.989Z,88546.00
2023-04-18T02:02:54.978Z,88546.00
2023-04-18T02:03:55.269Z,88548.00
2023-04-18T02:04:54.961Z,88546.00
2023-04-18T02:05:54.991Z,88544.00
2023-04-18T02:06:55.014Z,88546.00
2023-04-18T02:07:55.061Z,88544.00
2023-04-18T02:08:55.099Z,88544.00
2023-04-18T02:09:55.161Z,88548.00
2023-04-18T02:10:55.197Z,88544.00
2023-04-18T02:11:55.245Z,88548.00
2023-04-18T02:12:55.266Z,88544.00
2023-04-18T02:13:55.328Z,88550.00
2023-04-18T02:14:55.371Z,88546.00
2023-04-18T02:15:55.403Z,88544.00
2023-04-18T02:16:55.489Z,88546.00
2023-04-18T02:17:55.524Z,88550.00
2023-04-18T02:18:55.540Z,88548.00
2023-04-18T02:19:55.583Z,88546.00
2023-04-18T02:20:55.674Z,88548.00
2023-04-18T02:21:55.704Z,88546.00
2023-04-18T02:22:55.779Z,88548.00
2023-04-18T02:23:55.853Z,88548.00
2023-04-18T02:24:55.910Z,88548.00
2023-04-18T02:25:56.027Z,88550.00
2023-04-18T02:26:56.022Z,88550.00
2023-04-18T02:27:56.086Z,88552.00
2023-04-18T02:28:56.106Z,88548.00
2023-04-18T02:29:56.174Z,88550.00
2023-04-18T02:30:56.227Z,88548.00
2023-04-18T02:31:56.287Z,88548.00
2023-04-18T02:32:56.317Z,88546.00
2023-04-18T02:33:56.330Z,88550.00
2023-04-18T02:34:56.322Z,88550.00
2023-04-18T02:35:56.339Z,88552.00
2023-04-18T02:36:56.338Z,88550.00
2023-04-18T02:37:56.368Z,88548.00
2023-04-18T02:38:56.372Z,88546.00
2023-04-18T02:39:57.159Z,88546.00
2023-04-18T02:40:56.463Z,88546.00
2023-04-18T02:41:56.540Z,88552.00
2023-04-18T02:42:56.483Z,88550.00
2023-04-18T02:43:57.178Z,88552.00
2023-04-18T02:44:56.572Z,88554.00
2023-04-18T02:45:56.744Z,88552.00
2023-04-18T02:46:56.798Z,88556.00
2023-04-18T02:47:57.703Z,88554.00
2023-04-18T02:48:56.868Z,88552.00
2023-04-18T02:49:56.959Z,88548.00
2023-04-18T02:50:57.025Z,88550.00
2023-04-18T02:51:57.707Z,88548.00
2023-04-18T02:52:57.110Z,88548.00
2023-04-18T02:53:57.180Z,88548.00
2023-04-18T02:54:57.220Z,88546.00
2023-04-18T02:55:57.680Z,88548.00
2023-04-18T02:56:57.354Z,88548.00
2023-04-18T02:57:57.447Z,88546.00
2023-04-18T02:58:57.464Z,88546.00
2023-04-18T02:59:57.565Z,88543.00
2023-04-18T03:00:57.684Z,88544.00
2023-04-18T03:01:57.758Z,88546.00
2023-04-18T03:02:57.971Z,88544.00
2023-04-18T03:03:57.831Z,88541.00
2023-04-18T03:04:57.886Z,88543.00
2023-04-18T03:05:57.943Z,88544.00
2023-04-18T03:06:58.021Z,88543.00
2023-04-18T03:07:58.112Z,88543.00
2023-04-18T03:08:58.200Z,88543.00
2023-04-18T03:09:58.252Z,88543.00
2023-04-18T03:10:58.327Z,88546.00
2023-04-18T03:11:58.387Z,88543.00
2023-04-18T03:12:58.420Z,88541.00
2023-04-18T03:13:58.470Z,88543.00
2023-04-18T03:14:58.536Z,88544.00
2023-04-18T03:15:58.713Z,88541.00
2023-04-18T03:16:58.688Z,88543.00
2023-04-18T03:17:58.807Z,88541.00
2023-04-18T03:18:58.853Z,88541.00
2023-04-18T03:19:58.926Z,88539.00
2023-04-18T03:20:59.011Z,88539.00
2023-04-18T03:21:59.091Z,88541.00
2023-04-18T03:23:00.156Z,88539.00
2023-04-18T03:23:59.249Z,88539.00
2023-04-18T03:24:59.330Z,88539.00
2023-04-18T03:25:59.420Z,88541.00
2023-04-18T03:26:59.508Z,88537.00
2023-04-18T03:27:59.581Z,88539.00
2023-04-18T03:28:59.665Z,88539.00
2023-04-18T03:29:59.720Z,88539.00
2023-04-18T03:30:59.823Z,88537.00
2023-04-18T03:31:59.908Z,88537.00
2023-04-18T03:32:59.961Z,88537.00
2023-04-18T03:34:00.031Z,88537.00
2023-04-18T03:35:00.086Z,88539.00
2023-04-18T03:36:00.148Z,88539.00
2023-04-18T03:37:00.209Z,88537.00
2023-04-18T03:38:00.232Z,88537.00
2023-04-18T03:39:00.360Z,88535.00
2023-04-18T03:40:00.416Z,88535.00
2023-04-18T03:41:00.497Z,88537.00
2023-04-18T03:42:00.538Z,88535.00
2023-04-18T03:43:00.528Z,88533.00
2023-04-18T03:44:00.586Z,88533.00
2023-04-18T03:45:00.566Z,88535.00
2023-04-18T03:46:00.632Z,88535.00
2023-04-18T03:47:00.632Z,88533.00
2023-04-18T03:48:00.688Z,88533.00
2023-04-18T03:49:00.663Z,88531.00
2023-04-18T03:50:00.697Z,88531.00
2023-04-18T03:51:00.802Z,88529.00
2023-04-18T03:52:00.860Z,88531.00
2023-04-18T03:53:00.910Z,88529.00
2023-04-18T03:54:00.980Z,88529.00
2023-04-18T03:55:01.045Z,88529.00
2023-04-18T03:56:01.134Z,88527.00
2023-04-18T03:57:01.195Z,88529.00
2023-04-18T03:58:01.249Z,88531.00
2023-04-18T03:59:01.299Z,88525.00
2023-04-18T04:00:01.371Z,88529.00
2023-04-18T04:01:01.490Z,88529.00
2023-04-18T04:02:01.690Z,88529.00
2023-04-18T04:03:01.887Z,88529.00
2023-04-18T04:04:01.765Z,88531.00
2023-04-18T04:05:01.909Z,88533.00
2023-04-18T04:06:01.933Z,88533.00
2023-04-18T04:07:01.872Z,88531.00
2023-04-18T04:08:01.955Z,88533.00
2023-04-18T04:09:01.921Z,88533.00
2023-04-18T04:10:01.937Z,88535.00
2023-04-18T04:11:02.041Z,88537.00
2023-04-18T04:12:01.980Z,88535.00
2023-04-18T04:13:01.980Z,88539.00
2023-04-18T04:14:02.017Z,88537.00
2023-04-18T04:15:02.037Z,88537.00
2023-04-18T04:16:02.081Z,88537.00
2023-04-18T04:17:02.088Z,88539.00
2023-04-18T04:18:02.198Z,88535.00
2023-04-18T04:19:02.256Z,88535.00
2023-04-18T04:20:02.296Z,88535.00
2023-04-18T04:21:02.324Z,88537.00
2023-04-18T04:22:02.431Z,88537.00
2023-04-18T04:23:02.495Z,88541.00
2023-04-18T04:24:02.588Z,88541.00
2023-04-18T04:25:02.643Z,88541.00
2023-04-18T04:26:02.713Z,88543.00
2023-04-18T04:27:02.809Z,88543.00
2023-04-18T04:28:02.868Z,88543.00
2023-04-18T04:29:02.904Z,88544.00
2023-04-18T04:30:02.953Z,88544.00
2023-04-18T04:31:02.994Z,88543.00
2023-04-18T04:32:03.100Z,88544.00
2023-04-18T04:33:03.074Z,88541.00
2023-04-18T04:34:03.104Z,88541.00
2023-04-18T04:35:03.107Z,88541.00
2023-04-18T04:36:03.131Z,88544.00
2023-04-18T04:37:03.142Z,88546.00
2023-04-18T04:38:03.150Z,88546.00
2023-04-18T04:39:03.182Z,88546.00
2023-04-18T04:40:03.202Z,88548.00
2023-04-18T04:41:03.205Z,88544.00
2023-04-18T04:42:03.215Z,88544.00
2023-04-18T04:43:03.221Z,88548.00
2023-04-18T04:44:03.258Z,88550.00
2023-04-18T04:45:03.347Z,88550.00
2023-04-18T04:46:03.323Z,88550.00
2023-04-18T04:47:03.296Z,88552.00
2023-04-18T04:48:03.392Z,88552.00
2023-04-18T04:49:03.295Z,88550.00
2023-04-18T04:50:03.300Z,88550.00
2023-04-18T04:51:03.339Z,88550.00
2023-04-18T04:52:03.344Z,88552.00
2023-04-18T04:53:03.371Z,88550.00
2023-04-18T04:54:03.372Z,88552.00
2023-04-18T04:55:03.401Z,88552.00
2023-04-18T04:56:03.410Z,88550.00
2023-04-18T04:57:03.482Z,88550.00
2023-04-18T04:58:03.450Z,88554.00
2023-04-18T04:59:03.447Z,88548.00
2023-04-18T05:00:03.471Z,88548.00
2023-04-18T05:01:04.222Z,88548.00
2023-04-18T05:02:03.576Z,88548.00
2023-04-18T05:03:03.692Z,88552.00
2023-04-18T05:04:03.706Z,88550.00
2023-04-18T05:05:03.562Z,88552.00
2023-04-18T05:06:04.175Z,88554.00
2023-04-18T05:07:03.568Z,88554.00
2023-04-18T05:08:03.571Z,88552.00
2023-04-18T05:09:03.631Z,88554.00
2023-04-18T05:10:03.602Z,88558.00
2023-04-18T05:11:03.611Z,88556.00
2023-04-18T05:12:03.637Z,88560.00
2023-04-18T05:13:03.636Z,88560.00
2023-04-18T05:14:03.671Z,88562.00
2023-04-18T05:15:03.681Z,88562.00
2023-04-18T05:16:03.681Z,88562.00
2023-04-18T05:17:03.720Z,88564.00
2023-04-18T05:18:03.738Z,88564.00
2023-04-18T05:19:03.757Z,88568.00
2023-04-18T05:20:03.725Z,88566.00
2023-04-18T05:21:03.753Z,88562.00
2023-04-18T05:22:03.761Z,88564.00
2023-04-18T05:23:03.826Z,88568.00
2023-04-18T05:24:03.861Z,88568.00
2023-04-18T05:25:03.898Z,88566.00
2023-04-18T05:26:03.959Z,88566.00
2023-04-18T05:27:04.031Z,88566.00
2023-04-18T05:28:04.103Z,88564.00
2023-04-18T05:29:04.177Z,88568.00
2023-04-18T05:30:04.252Z,88568.00
2023-04-18T05:31:04.360Z,88568.00
2023-04-18T05:32:04.353Z,88570.00
2023-04-18T05:33:04.438Z,88574.00
2023-04-18T05:34:04.491Z,88572.00
2023-04-18T05:35:04.602Z,88574.00
2023-04-18T05:36:04.596Z,88572.00
2023-04-18T05:37:04.702Z,88570.00
2023-04-18T05:38:04.644Z,88574.00
2023-04-18T05:39:04.674Z,88570.00
2023-04-18T05:40:04.708Z,88572.00
2023-04-18T05:41:04.722Z,88570.00
2023-04-18T05:42:04.742Z,88576.00
2023-04-18T05:43:04.750Z,88572.00
2023-04-18T05:44:05.921Z,88572.00
2023-04-18T05:45:04.818Z,88572.00
2023-04-18T05:46:04.838Z,88574.00
2023-04-18T05:47:05.485Z,88570.00
2023-04-18T05:48:05.289Z,88570.00
2023-04-18T05:49:04.863Z,88570.00
2023-04-18T05:50:04.872Z,88572.00
2023-04-18T05:51:05.708Z,88568.00
2023-04-18T05:52:04.907Z,88566.00
2023-04-18T05:53:04.905Z,88572.00
2023-04-18T05:54:04.940Z,88570.00
2023-04-18T05:55:05.007Z,88568.00
2023-04-18T05:56:04.911Z,88572.00
2023-04-18T05:57:05.009Z,88568.00
2023-04-18T05:58:04.965Z,88572.00
2023-04-18T05:59:05.070Z,88570.00
2023-04-18T06:00:04.952Z,88572.00
2023-04-18T06:01:04.954Z,88572.00
2023-04-18T06:02:05.756Z,88574.00
2023-04-18T06:03:07.880Z,88574.00
2023-04-18T06:04:05.867Z,88572.00
2023-04-18T06:05:05.296Z,88576.00
2023-04-18T06:06:05.018Z,88576.00
2023-04-18T06:07:05.024Z,88576.00
2023-04-18T06:08:05.246Z,88576.00
2023-04-18T06:09:05.015Z,88576.00
2023-04-18T06:10:05.027Z,88572.00
2023-04-18T06:11:05.711Z,88574.00
2023-04-18T06:12:05.063Z,88572.00
2023-04-18T06:13:05.004Z,88574.00
2023-04-18T06:14:05.019Z,88574.00
2023-04-18T06:15:05.015Z,88572.00
2023-04-18T06:16:05.050Z,88574.00
2023-04-18T06:17:05.008Z,88576.00
2023-04-18T06:18:05.067Z,88576.00
2023-04-18T06:19:05.065Z,88576.00
2023-04-18T06:20:04.993Z,88576.00
2023-04-18T06:21:07.722Z,88574.00
2023-04-18T06:22:05.006Z,88574.00
2023-04-18T06:23:05.017Z,88574.00
2023-04-18T06:24:04.980Z,88576.00
2023-04-18T06:25:05.039Z,88576.00
2023-04-18T06:26:04.974Z,88576.00
2023-04-18T06:27:04.995Z,88576.00
2023-04-18T06:28:05.219Z,88576.00
2023-04-18T06:29:04.987Z,88580.00
2023-04-18T06:30:04.978Z,88580.00
2023-04-18T06:31:05.071Z,88580.00
2023-04-18T06:32:05.824Z,88580.00
2023-04-18T06:33:05.124Z,88582.00
2023-04-18T06:34:05.125Z,88582.00
2023-04-18T06:35:05.071Z,88584.00
2023-04-18T06:36:04.998Z,88582.00
2023-04-18T06:37:05.023Z,88586.00
2023-04-18T06:38:05.090Z,88584.00
2023-04-18T06:39:05.009Z,88578.00
2023-04-18T06:40:04.973Z,88580.00
2023-04-18T06:41:05.001Z,88576.00
2023-04-18T06:42:05.217Z,88576.00
2023-04-18T06:43:04.931Z,88570.00
2023-04-18T06:44:05.004Z,88574.00
2023-04-18T06:45:04.916Z,88570.00
2023-04-18T06:46:05.047Z,88568.00
2023-04-18T06:47:04.912Z,88572.00
2023-04-18T06:48:04.948Z,88568.00
2023-04-18T06:49:04.989Z,88568.00
2023-04-18T06:50:04.917Z,88570.00
2023-04-18T06:51:04.838Z,88570.00
2023-04-18T06:52:04.908Z,88568.00
2023-04-18T06:53:04.870Z,88572.00
2023-04-18T06:54:04.877Z,88568.00
2023-04-18T06:55:04.895Z,88570.00
2023-04-18T06:56:04.970Z,88570.00
2023-04-18T06:57:04.993Z,88570.00
2023-04-18T06:58:05.063Z,88570.00
2023-04-18T06:59:05.070Z,88568.00
2023-04-18T07:00:05.093Z,88570.00
2023-04-18T07:01:05.094Z,88570.00
2023-04-18T07:02:05.232Z,88566.00
2023-04-18T07:03:05.382Z,88572.00
2023-04-18T07:04:05.149Z,88572.00
2023-04-18T07:05:05.153Z,88568.00
2023-04-18T07:06:05.035Z,88570.00
2023-04-18T07:07:05.012Z,88564.00
2023-04-18T07:08:04.979Z,88566.00
2023-04-18T07:09:05.244Z,88566.00
2023-04-18T07:10:04.973Z,88570.00
2023-04-18T07:11:05.082Z,88572.00
2023-04-18T07:12:04.960Z,88572.00
2023-04-18T07:13:04.928Z,88570.00
2023-04-18T07:14:04.971Z,88572.00
2023-04-18T07:15:04.917Z,88570.00
2023-04-18T07:16:05.809Z,88564.00
2023-04-18T07:17:05.026Z,88568.00
2023-04-18T07:18:07.808Z,88566.00
2023-04-18T07:19:04.900Z,88566.00
2023-04-18T07:20:04.874Z,88570.00
2023-04-18T07:21:04.872Z,88566.00
2023-04-18T07:22:04.886Z,88564.00
2023-04-18T07:23:04.903Z,88562.00
2023-04-18T07:24:04.867Z,88564.00
2023-04-18T07:25:05.641Z,88564.00
2023-04-18T07:26:04.868Z,88564.00
2023-04-18T07:27:08.867Z,88564.00
2023-04-18T07:28:04.893Z,88564.00
2023-04-18T07:29:04.874Z,88564.00
2023-04-18T07:30:04.973Z,88566.00
2023-04-18T07:31:04.848Z,88568.00
2023-04-18T07:32:06.216Z,88568.00
2023-04-18T07:33:06.912Z,88568.00
2023-04-18T07:34:04.789Z,88568.00
2023-04-18T07:35:04.777Z,88570.00
2023-04-18T07:36:04.800Z,88570.00
2023-04-18T07:37:04.832Z,88570.00
2023-04-18T07:38:04.786Z,88568.00
2023-04-18T07:39:04.877Z,88570.00
2023-04-18T07:40:04.759Z,88572.00
2023-04-18T07:41:05.935Z,88572.00
2023-04-18T07:42:04.788Z,88570.00
2023-04-18T07:43:04.874Z,88570.00
2023-04-18T07:44:04.907Z,88570.00
2023-04-18T07:45:04.810Z,88566.00
2023-04-18T07:46:04.804Z,88568.00
2023-04-18T07:47:04.792Z,88570.00
2023-04-18T07:48:04.849Z,88570.00
2023-04-18T07:49:04.834Z,88566.00
2023-04-18T07:50:04.833Z,88570.00
2023-04-18T07:51:04.819Z,88570.00
2023-04-18T07:52:04.965Z,88574.00
2023-04-18T07:53:04.979Z,88570.00
2023-04-18T07:54:04.979Z,88570.00
2023-04-18T07:55:04.925Z,88576.00
2023-04-18T07:56:05.073Z,88572.00
2023-04-18T07:57:04.982Z,88574.00
2023-04-18T07:58:05.002Z,88570.00
2023-04-18T07:59:05.087Z,88578.00
2023-04-18T08:00:05.019Z,88572.00
2023-04-18T08:01:05.034Z,88570.00
2023-04-18T08:02:05.195Z,88568.00
2023-04-18T08:03:05.229Z,88570.00
2023-04-18T08:04:05.277Z,88572.00
2023-04-18T08:05:05.182Z,88572.00
2023-04-18T08:06:05.103Z,88572.00
2023-04-18T08:07:05.162Z,88574.00
2023-04-18T08:08:05.124Z,88568.00
2023-04-18T08:09:05.131Z,88578.00
2023-04-18T08:10:05.108Z,88568.00
2023-04-18T08:11:06.761Z,88572.00
2023-04-18T08:12:05.736Z,88570.00
2023-04-18T08:13:05.754Z,88570.00
2023-04-18T08:14:05.268Z,88570.00
2023-04-18T08:15:05.335Z,88574.00
2023-04-18T08:16:05.270Z,88568.00
2023-04-18T08:17:05.224Z,88568.00
2023-04-18T08:18:05.286Z,88570.00
2023-04-18T08:19:05.224Z,88568.00
2023-04-18T08:20:05.238Z,88568.00
2023-04-18T08:21:05.242Z,88564.00
2023-04-18T08:22:05.204Z,88568.00
2023-04-18T08:23:08.701Z,88568.00
2023-04-18T08:24:05.133Z,88572.00
2023-04-18T08:25:05.858Z,88572.00
2023-04-18T08:26:05.068Z,88566.00
2023-04-18T08:27:05.052Z,88570.00
2023-04-18T08:28:05.011Z,88570.00
2023-04-18T08:29:04.939Z,88568.00
2023-04-18T08:30:04.996Z,88570.00
2023-04-18T08:31:04.852Z,88572.00
2023-04-18T08:32:04.897Z,88572.00
2023-04-18T08:33:04.875Z,88568.00
2023-04-18T08:34:05.179Z,88570.00
2023-04-18T08:35:04.671Z,88572.00
2023-04-18T08:36:04.744Z,88562.00
2023-04-18T08:37:04.640Z,88562.00
2023-04-18T08:38:04.523Z,88560.00
2023-04-18T08:39:04.503Z,88560.00
2023-04-18T08:40:04.411Z,88564.00
2023-04-18T08:41:05.398Z,88562.00
2023-04-18T08:42:04.304Z,88562.00
2023-04-18T08:43:05.251Z,88564.00
2023-04-18T08:44:04.732Z,88566.00
2023-04-18T08:45:04.220Z,88566.00
2023-04-18T08:46:04.210Z,88566.00
2023-04-18T08:47:04.095Z,88572.00
2023-04-18T08:48:04.109Z,88566.00
2023-04-18T08:49:04.837Z,88570.00
2023-04-18T08:50:04.079Z,88566.00
2023-04-18T08:51:03.952Z,88568.00
2023-04-18T08:52:03.919Z,88572.00
2023-04-18T08:53:03.905Z,88568.00
2023-04-18T08:54:03.894Z,88568.00
2023-04-18T08:55:04.038Z,88568.00
2023-04-18T08:56:03.999Z,88564.00
2023-04-18T08:57:04.083Z,88566.00
2023-04-18T08:58:03.881Z,88570.00
2023-04-18T08:59:03.859Z,88568.00
2023-04-18T09:00:03.869Z,88568.00
2023-04-18T09:01:03.891Z,88558.00
2023-04-18T09:02:04.841Z,88562.00
2023-04-18T09:03:04.164Z,88570.00
2023-04-18T09:04:03.905Z,88562.00
2023-04-18T09:05:03.906Z,88562.00
2023-04-18T09:06:03.929Z,88556.00
2023-04-18T09:07:03.943Z,88562.00
2023-04-18T09:08:03.908Z,88560.00
2023-04-18T09:09:03.938Z,88560.00
2023-04-18T09:10:03.907Z,88560.00
2023-04-18T09:11:03.913Z,88554.00
2023-04-18T09:12:03.891Z,88558.00
2023-04-18T09:13:03.939Z,88558.00
2023-04-18T09:14:03.876Z,88560.00
2023-04-18T09:15:04.017Z,88560.00
2023-04-18T09:16:03.877Z,88560.00
2023-04-18T09:17:04.022Z,88560.00
2023-04-18T09:18:03.883Z,88554.00
2023-04-18T09:19:05.747Z,88562.00
2023-04-18T09:20:03.833Z,88560.00
2023-04-18T09:21:03.805Z,88556.00
2023-04-18T09:22:03.762Z,88558.00
2023-04-18T09:23:03.702Z,88554.00
2023-04-18T09:24:03.647Z,88552.00
2023-04-18T09:25:03.742Z,88558.00
2023-04-18T09:26:04.156Z,88560.00
2023-04-18T09:27:03.506Z,88560.00
2023-04-18T09:28:03.481Z,88558.00
2023-04-18T09:29:03.439Z,88556.00
2023-04-18T09:30:03.401Z,88560.00
2023-04-18T09:31:03.377Z,88554.00
2023-04-18T09:32:03.298Z,88554.00
2023-04-18T09:33:03.244Z,88558.00
2023-04-18T09:34:03.171Z,88554.00
2023-04-18T09:35:04.606Z,88552.00
2023-04-18T09:36:03.105Z,88552.00
2023-04-18T09:37:03.077Z,88554.00
2023-04-18T09:38:03.062Z,88554.00
2023-04-18T09:39:02.968Z,88552.00
2023-04-18T09:40:02.925Z,88550.00
2023-04-18T09:41:02.909Z,88558.00
2023-04-18T09:42:02.833Z,88548.00
2023-04-18T09:43:03.755Z,88548.00
2023-04-18T09:44:02.756Z,88552.00
2023-04-18T09:45:02.715Z,88548.00
2023-04-18T09:46:02.811Z,88550.00
2023-04-18T09:47:02.774Z,88550.00
2023-04-18T09:48:02.599Z,88546.00
2023-04-18T09:49:02.550Z,88552.00
2023-04-18T09:50:03.274Z,88548.00
2023-04-18T09:51:02.479Z,88552.00
2023-04-18T09:52:02.515Z,88550.00
2023-04-18T09:53:02.515Z,88550.00
2023-04-18T09:54:02.536Z,88550.00
2023-04-18T09:55:02.523Z,88552.00
2023-04-18T09:56:02.530Z,88550.00
2023-04-18T09:57:02.488Z,88548.00
2023-04-18T09:58:02.510Z,88552.00
2023-04-18T09:59:02.464Z,88550.00
2023-04-18T10:00:02.490Z,88548.00
2023-04-18T10:01:02.455Z,88550.00
2023-04-18T10:02:02.523Z,88544.00
2023-04-18T10:03:02.564Z,88550.00
2023-04-18T10:04:02.511Z,88548.00
2023-04-18T10:05:02.561Z,88544.00
2023-04-18T10:06:02.486Z,88546.00
2023-04-18T10:07:02.360Z,88548.00
2023-04-18T10:08:02.387Z,88554.00
2023-04-18T10:09:02.349Z,88546.00
2023-04-18T10:10:02.371Z,88546.00
2023-04-18T10:11:02.364Z,88550.00
2023-04-18T10:12:02.354Z,88552.00
2023-04-18T10:13:02.360Z,88552.00
2023-04-18T10:14:02.299Z,88556.00
2023-04-18T10:15:02.340Z,88552.00
2023-04-18T10:16:02.403Z,88552.00
2023-04-18T10:17:02.440Z,88546.00
2023-04-18T10:18:05.094Z,88552.00
2023-04-18T10:19:02.295Z,88546.00
2023-04-18T10:20:02.268Z,88546.00
2023-04-18T10:21:02.194Z,88543.00
2023-04-18T10:22:02.139Z,88544.00
2023-04-18T10:23:02.090Z,88543.00
2023-04-18T10:24:02.130Z,88541.00
2023-04-18T10:25:01.974Z,88543.00
2023-04-18T10:26:01.896Z,88541.00
2023-04-18T10:27:01.812Z,88541.00
2023-04-18T10:28:01.787Z,88539.00
2023-04-18T10:29:01.712Z,88543.00
2023-04-18T10:30:01.660Z,88546.00
2023-04-18T10:31:01.770Z,88543.00
2023-04-18T10:32:01.525Z,88537.00
2023-04-18T10:33:01.495Z,88537.00
2023-04-18T10:34:05.331Z,88539.00
2023-04-18T10:35:02.376Z,88541.00
2023-04-18T10:36:04.918Z,88544.00
2023-04-18T10:37:01.287Z,88533.00
2023-04-18T10:38:01.268Z,88535.00
2023-04-18T10:39:01.222Z,88535.00
2023-04-18T10:40:01.318Z,88533.00
2023-04-18T10:41:01.068Z,88533.00
2023-04-18T10:42:01.000Z,88529.00
2023-04-18T10:43:00.948Z,88535.00
2023-04-18T10:44:00.937Z,88531.00
2023-04-18T10:45:00.842Z,88529.00
2023-04-18T10:46:01.127Z,88529.00
2023-04-18T10:47:00.798Z,88529.00
2023-04-18T10:48:00.781Z,88531.00
2023-04-18T10:49:00.601Z,88529.00
2023-04-18T10:50:00.562Z,88531.00
2023-04-18T10:51:01.356Z,88525.00
2023-04-18T10:52:00.456Z,88529.00
2023-04-18T10:53:00.365Z,88525.00
2023-04-18T10:54:00.337Z,88529.00
2023-04-18T10:55:00.800Z,88523.00
2023-04-18T10:56:00.216Z,88527.00
2023-04-18T10:57:00.121Z,88521.00
2023-04-18T10:58:00.074Z,88521.00
2023-04-18T10:58:59.992Z,88521.00
2023-04-18T10:59:59.962Z,88523.00
2023-04-18T11:00:59.885Z,88525.00
2023-04-18T11:02:00.138Z,88523.00
2023-04-18T11:02:59.986Z,88519.00
2023-04-18T11:03:59.852Z,88521.00
2023-04-18T11:05:00.579Z,88519.00
2023-04-18T11:05:59.787Z,88513.00
2023-04-18T11:06:59.692Z,88519.00
2023-04-18T11:07:59.721Z,88509.00
2023-04-18T11:08:59.788Z,88505.00
2023-04-18T11:09:59.676Z,88505.00
2023-04-18T11:10:59.636Z,88511.00
2023-04-18T11:11:59.652Z,88509.00
2023-04-18T11:12:59.690Z,88513.00
2023-04-18T11:13:59.682Z,88501.00
2023-04-18T11:14:59.579Z,88513.00
2023-04-18T11:15:59.799Z,88503.00
2023-04-18T11:16:59.559Z,88513.00
2023-04-18T11:17:59.567Z,88503.00
2023-04-18T11:18:59.480Z,88503.00
2023-04-18T11:19:59.473Z,88499.00
2023-04-18T11:21:01.533Z,88507.00
2023-04-18T11:21:59.457Z,88501.00
2023-04-18T11:22:59.428Z,88499.00
2023-04-18T11:23:59.414Z,88509.00
2023-04-18T11:24:59.421Z,88505.00
2023-04-18T11:25:59.429Z,88505.00
2023-04-18T11:26:59.424Z,88499.00
2023-04-18T11:27:59.379Z,88497.00
2023-04-18T11:28:59.438Z,88503.00
2023-04-18T11:29:59.399Z,88507.00
2023-04-18T11:30:59.387Z,88503.00
2023-04-18T11:31:59.832Z,88488.00
2023-04-18T11:32:59.560Z,88501.00
2023-04-18T11:33:59.371Z,88505.00
2023-04-18T11:34:59.407Z,88501.00
2023-04-18T11:35:59.509Z,88501.00
2023-04-18T11:36:59.514Z,88501.00
2023-04-18T11:37:59.438Z,88497.00
2023-04-18T11:38:59.515Z,88488.00
2023-04-18T11:39:59.453Z,88509.00
2023-04-18T11:40:59.481Z,88490.00
2023-04-18T11:41:59.495Z,88503.00
2023-04-18T11:42:59.459Z,88486.00
2023-04-18T11:43:59.554Z,88488.00
2023-04-18T11:44:59.487Z,88499.00